sensor_id;sensor_type;location;lat;lon;timestamp;P1;durP1;ratioP1;P2;durP2;ratioP2
78183;SDS011;67442;44.570;18.610;2024-02-23T00:02:24;222.00;;;65.65;;
78183;SDS011;67442;44.570;18.610;2024-02-23T00:04:50;126.40;;;38.72;;
78183;SDS011;67442;44.570;18.610;2024-02-23T00:07:18;122.10;;;39.05;;
78183;SDS011;67442;44.570;18.610;2024-02-23T00:09:45;155.48;;;48.70;;
78183;SDS011;67442;44.570;18.610;2024-02-23T00:12:13;100.57;;;32.70;;
78183;SDS011;67442;44.570;18.610;2024-02-23T00:14:40;187.35;;;54.95;;
78183;SDS011;67442;44.570;18.610;2024-02-23T00:17:08;200.43;;;62.72;;
78183;SDS011;67442;44.570;18.610;2024-02-23T00:19:35;271.98;;;86.63;;
78183;SDS011;67442;44.570;18.610;2024-02-23T00:22:02;254.95;;;77.30;;
78183;SDS011;67442;44.570;18.610;2024-02-23T00:24:30;61.15;;;24.00;;
78183;SDS011;67442;44.570;18.610;2024-02-23T00:26:57;246.38;;;74.97;;
78183;SDS011;67442;44.570;18.610;2024-02-23T00:29:25;227.82;;;73.95;;
78183;SDS011;67442;44.570;18.610;2024-02-23T00:31:52;422.30;;;124.97;;
78183;SDS011;67442;44.570;18.610;2024-02-23T00:34:19;104.95;;;37.72;;
78183;SDS011;67442;44.570;18.610;2024-02-23T00:36:48;138.43;;;46.25;;
78183;SDS011;67442;44.570;18.610;2024-02-23T00:39:15;238.15;;;77.95;;
78183;SDS011;67442;44.570;18.610;2024-02-23T00:41:42;91.07;;;33.40;;
78183;SDS011;67442;44.570;18.610;2024-02-23T00:44:10;126.57;;;42.42;;
78183;SDS011;67442;44.570;18.610;2024-02-23T00:46:37;110.72;;;41.35;;
78183;SDS011;67442;44.570;18.610;2024-02-23T00:49:05;331.23;;;112.78;;
78183;SDS011;67442;44.570;18.610;2024-02-23T00:51:32;201.02;;;69.95;;
78183;SDS011;67442;44.570;18.610;2024-02-23T00:53:59;152.50;;;53.10;;
78183;SDS011;67442;44.570;18.610;2024-02-23T00:56:27;175.07;;;63.97;;
78183;SDS011;67442;44.570;18.610;2024-02-23T00:58:54;202.85;;;71.50;;
78183;SDS011;67442;44.570;18.610;2024-02-23T01:01:22;525.97;;;177.13;;
78183;SDS011;67442;44.570;18.610;2024-02-23T01:03:50;288.27;;;92.53;;
78183;SDS011;67442;44.570;18.610;2024-02-23T01:06:17;144.82;;;50.38;;
78183;SDS011;67442;44.570;18.610;2024-02-23T01:08:44;102.78;;;37.63;;
78183;SDS011;67442;44.570;18.610;2024-02-23T01:11:13;102.53;;;36.35;;
78183;SDS011;67442;44.570;18.610;2024-02-23T01:13:40;107.05;;;39.25;;
78183;SDS011;67442;44.570;18.610;2024-02-23T01:16:08;136.50;;;51.25;;
78183;SDS011;67442;44.570;18.610;2024-02-23T01:18:35;97.82;;;36.08;;
78183;SDS011;67442;44.570;18.610;2024-02-23T01:21:03;98.18;;;36.85;;
78183;SDS011;67442;44.570;18.610;2024-02-23T01:23:30;78.85;;;30.15;;
78183;SDS011;67442;44.570;18.610;2024-02-23T01:25:58;67.00;;;27.75;;
78183;SDS011;67442;44.570;18.610;2024-02-23T01:28:25;101.25;;;36.60;;
78183;SDS011;67442;44.570;18.610;2024-02-23T01:30:53;89.55;;;34.10;;
78183;SDS011;67442;44.570;18.610;2024-02-23T01:33:20;76.13;;;31.70;;
78183;SDS011;67442;44.570;18.610;2024-02-23T01:35:48;43.65;;;17.67;;
78183;SDS011;67442;44.570;18.610;2024-02-23T01:38:16;51.03;;;19.20;;
78183;SDS011;67442;44.570;18.610;2024-02-23T01:40:47;35.55;;;16.08;;
78183;SDS011;67442;44.570;18.610;2024-02-23T01:43:15;126.70;;;41.92;;
78183;SDS011;67442;44.570;18.610;2024-02-23T01:45:42;51.47;;;20.02;;
78183;SDS011;67442;44.570;18.610;2024-02-23T01:48:10;62.03;;;23.20;;
78183;SDS011;67442;44.570;18.610;2024-02-23T01:50:38;54.55;;;21.02;;
78183;SDS011;67442;44.570;18.610;2024-02-23T01:53:05;23.60;;;9.88;;
78183;SDS011;67442;44.570;18.610;2024-02-23T01:55:33;19.80;;;8.13;;
78183;SDS011;67442;44.570;18.610;2024-02-23T01:58:00;19.83;;;8.63;;
78183;SDS011;67442;44.570;18.610;2024-02-23T02:00:27;16.42;;;7.78;;
78183;SDS011;67442;44.570;18.610;2024-02-23T02:02:55;11.73;;;6.57;;
78183;SDS011;67442;44.570;18.610;2024-02-23T02:05:24;17.95;;;6.57;;
78183;SDS011;67442;44.570;18.610;2024-02-23T02:07:51;10.50;;;5.43;;
78183;SDS011;67442;44.570;18.610;2024-02-23T02:10:24;9.98;;;5.38;;
78183;SDS011;67442;44.570;18.610;2024-02-23T02:12:52;9.38;;;5.55;;
78183;SDS011;67442;44.570;18.610;2024-02-23T02:15:20;9.32;;;5.07;;
78183;SDS011;67442;44.570;18.610;2024-02-23T02:17:47;11.35;;;6.05;;
78183;SDS011;67442;44.570;18.610;2024-02-23T02:20:14;8.48;;;5.25;;
78183;SDS011;67442;44.570;18.610;2024-02-23T02:22:45;11.18;;;5.93;;
78183;SDS011;67442;44.570;18.610;2024-02-23T02:25:13;9.05;;;5.05;;
78183;SDS011;67442;44.570;18.610;2024-02-23T02:27:44;11.93;;;5.53;;
78183;SDS011;67442;44.570;18.610;2024-02-23T02:30:12;9.75;;;5.78;;
78183;SDS011;67442;44.570;18.610;2024-02-23T02:32:40;11.75;;;5.78;;
78183;SDS011;67442;44.570;18.610;2024-02-23T02:35:07;9.60;;;5.90;;
78183;SDS011;67442;44.570;18.610;2024-02-23T02:37:34;13.13;;;6.32;;
78183;SDS011;67442;44.570;18.610;2024-02-23T02:40:02;9.32;;;5.68;;
78183;SDS011;67442;44.570;18.610;2024-02-23T02:42:29;12.88;;;5.05;;
78183;SDS011;67442;44.570;18.610;2024-02-23T02:44:56;9.38;;;5.28;;
78183;SDS011;67442;44.570;18.610;2024-02-23T02:47:23;10.57;;;4.78;;
78183;SDS011;67442;44.570;18.610;2024-02-23T02:49:50;12.23;;;5.82;;
78183;SDS011;67442;44.570;18.610;2024-02-23T02:52:18;10.68;;;5.55;;
78183;SDS011;67442;44.570;18.610;2024-02-23T02:54:48;10.30;;;5.88;;
78183;SDS011;67442;44.570;18.610;2024-02-23T02:57:16;10.10;;;5.00;;
78183;SDS011;67442;44.570;18.610;2024-02-23T02:59:42;10.00;;;5.00;;
78183;SDS011;67442;44.570;18.610;2024-02-23T03:02:11;13.25;;;5.88;;
78183;SDS011;67442;44.570;18.610;2024-02-23T03:04:38;9.85;;;5.43;;
78183;SDS011;67442;44.570;18.610;2024-02-23T03:07:05;12.18;;;4.82;;
78183;SDS011;67442;44.570;18.610;2024-02-23T03:09:33;10.30;;;5.47;;
78183;SDS011;67442;44.570;18.610;2024-02-23T03:12:00;8.45;;;5.07;;
78183;SDS011;67442;44.570;18.610;2024-02-23T03:14:28;10.90;;;5.88;;
78183;SDS011;67442;44.570;18.610;2024-02-23T03:16:55;23.55;;;10.88;;
78183;SDS011;67442;44.570;18.610;2024-02-23T03:19:22;7.75;;;4.90;;
78183;SDS011;67442;44.570;18.610;2024-02-23T03:21:51;14.68;;;7.65;;
78183;SDS011;67442;44.570;18.610;2024-02-23T03:24:18;9.77;;;5.43;;
78183;SDS011;67442;44.570;18.610;2024-02-23T03:26:45;13.73;;;6.03;;
78183;SDS011;67442;44.570;18.610;2024-02-23T03:29:13;14.70;;;6.20;;
78183;SDS011;67442;44.570;18.610;2024-02-23T03:31:40;9.13;;;4.85;;
78183;SDS011;67442;44.570;18.610;2024-02-23T03:34:07;12.43;;;5.25;;
78183;SDS011;67442;44.570;18.610;2024-02-23T03:36:36;11.13;;;5.85;;
78183;SDS011;67442;44.570;18.610;2024-02-23T03:39:03;12.68;;;5.70;;
78183;SDS011;67442;44.570;18.610;2024-02-23T03:41:30;10.00;;;5.65;;
78183;SDS011;67442;44.570;18.610;2024-02-23T03:43:57;8.80;;;4.28;;
78183;SDS011;67442;44.570;18.610;2024-02-23T03:46:25;10.60;;;4.80;;
78183;SDS011;67442;44.570;18.610;2024-02-23T03:48:52;9.43;;;5.18;;
78183;SDS011;67442;44.570;18.610;2024-02-23T03:51:19;11.48;;;4.63;;
78183;SDS011;67442;44.570;18.610;2024-02-23T03:53:46;13.43;;;6.88;;
78183;SDS011;67442;44.570;18.610;2024-02-23T03:56:14;11.15;;;5.00;;
78183;SDS011;67442;44.570;18.610;2024-02-23T03:58:41;11.27;;;5.00;;
78183;SDS011;67442;44.570;18.610;2024-02-23T04:01:09;12.93;;;6.78;;
78183;SDS011;67442;44.570;18.610;2024-02-23T04:03:36;11.40;;;6.53;;
78183;SDS011;67442;44.570;18.610;2024-02-23T04:06:04;12.75;;;6.78;;
78183;SDS011;67442;44.570;18.610;2024-02-23T04:08:33;9.60;;;5.18;;
78183;SDS011;67442;44.570;18.610;2024-02-23T04:11:00;10.20;;;5.70;;
78183;SDS011;67442;44.570;18.610;2024-02-23T04:13:27;8.27;;;4.82;;
78183;SDS011;67442;44.570;18.610;2024-02-23T04:15:55;11.13;;;5.50;;
78183;SDS011;67442;44.570;18.610;2024-02-23T04:18:23;11.15;;;5.35;;
78183;SDS011;67442;44.570;18.610;2024-02-23T04:20:50;8.77;;;4.72;;
78183;SDS011;67442;44.570;18.610;2024-02-23T04:23:18;17.05;;;7.38;;
78183;SDS011;67442;44.570;18.610;2024-02-23T04:25:45;60.50;;;32.42;;
78183;SDS011;67442;44.570;18.610;2024-02-23T04:28:12;10.80;;;5.68;;
78183;SDS011;67442;44.570;18.610;2024-02-23T04:30:39;13.45;;;6.25;;
78183;SDS011;67442;44.570;18.610;2024-02-23T04:33:06;8.98;;;4.95;;
78183;SDS011;67442;44.570;18.610;2024-02-23T04:35:33;12.18;;;5.20;;
78183;SDS011;67442;44.570;18.610;2024-02-23T04:38:02;16.27;;;6.57;;
78183;SDS011;67442;44.570;18.610;2024-02-23T04:40:29;16.45;;;8.65;;
78183;SDS011;67442;44.570;18.610;2024-02-23T04:42:57;13.75;;;7.55;;
78183;SDS011;67442;44.570;18.610;2024-02-23T04:45:24;10.48;;;5.03;;
78183;SDS011;67442;44.570;18.610;2024-02-23T04:47:51;18.88;;;7.75;;
78183;SDS011;67442;44.570;18.610;2024-02-23T04:50:19;11.13;;;5.78;;
78183;SDS011;67442;44.570;18.610;2024-02-23T04:52:46;14.45;;;6.28;;
78183;SDS011;67442;44.570;18.610;2024-02-23T04:55:14;18.17;;;11.05;;
78183;SDS011;67442;44.570;18.610;2024-02-23T04:57:41;15.50;;;6.10;;
78183;SDS011;67442;44.570;18.610;2024-02-23T05:00:09;10.50;;;5.47;;
78183;SDS011;67442;44.570;18.610;2024-02-23T05:02:37;8.98;;;4.95;;
78183;SDS011;67442;44.570;18.610;2024-02-23T05:05:05;11.80;;;6.90;;
78183;SDS011;67442;44.570;18.610;2024-02-23T05:07:32;14.93;;;6.30;;
78183;SDS011;67442;44.570;18.610;2024-02-23T05:10:00;14.10;;;5.57;;
78183;SDS011;67442;44.570;18.610;2024-02-23T05:12:27;11.27;;;5.72;;
78183;SDS011;67442;44.570;18.610;2024-02-23T05:14:54;14.57;;;5.68;;
78183;SDS011;67442;44.570;18.610;2024-02-23T05:17:21;11.50;;;5.78;;
78183;SDS011;67442;44.570;18.610;2024-02-23T05:19:49;16.83;;;8.75;;
78183;SDS011;67442;44.570;18.610;2024-02-23T05:22:16;13.80;;;6.45;;
78183;SDS011;67442;44.570;18.610;2024-02-23T05:24:45;39.20;;;13.40;;
78183;SDS011;67442;44.570;18.610;2024-02-23T05:27:12;30.50;;;13.35;;
78183;SDS011;67442;44.570;18.610;2024-02-23T05:29:40;19.70;;;8.73;;
78183;SDS011;67442;44.570;18.610;2024-02-23T05:32:07;17.45;;;9.02;;
78183;SDS011;67442;44.570;18.610;2024-02-23T05:34:34;20.92;;;6.80;;
78183;SDS011;67442;44.570;18.610;2024-02-23T05:37:02;17.98;;;5.65;;
78183;SDS011;67442;44.570;18.610;2024-02-23T05:39:29;16.73;;;6.45;;
78183;SDS011;67442;44.570;18.610;2024-02-23T05:41:57;12.35;;;6.93;;
78183;SDS011;67442;44.570;18.610;2024-02-23T05:44:25;17.17;;;6.65;;
78183;SDS011;67442;44.570;18.610;2024-02-23T05:46:54;49.85;;;19.65;;
78183;SDS011;67442;44.570;18.610;2024-02-23T05:49:21;9.07;;;4.88;;
78183;SDS011;67442;44.570;18.610;2024-02-23T05:51:49;14.27;;;8.00;;
78183;SDS011;67442;44.570;18.610;2024-02-23T05:54:16;17.63;;;6.05;;
78183;SDS011;67442;44.570;18.610;2024-02-23T05:56:44;13.00;;;6.05;;
78183;SDS011;67442;44.570;18.610;2024-02-23T05:59:11;7.65;;;4.43;;
78183;SDS011;67442;44.570;18.610;2024-02-23T06:01:39;30.38;;;15.43;;
78183;SDS011;67442;44.570;18.610;2024-02-23T06:04:06;10.80;;;5.38;;
78183;SDS011;67442;44.570;18.610;2024-02-23T06:06:33;11.73;;;5.63;;
78183;SDS011;67442;44.570;18.610;2024-02-23T06:09:01;8.98;;;4.82;;
78183;SDS011;67442;44.570;18.610;2024-02-23T06:11:28;12.82;;;5.35;;
78183;SDS011;67442;44.570;18.610;2024-02-23T06:13:55;11.80;;;4.80;;
78183;SDS011;67442;44.570;18.610;2024-02-23T06:16:22;10.00;;;4.90;;
78183;SDS011;67442;44.570;18.610;2024-02-23T06:18:49;12.38;;;5.05;;
78183;SDS011;67442;44.570;18.610;2024-02-23T06:21:17;11.77;;;4.95;;
78183;SDS011;67442;44.570;18.610;2024-02-23T06:23:44;7.68;;;4.60;;
78183;SDS011;67442;44.570;18.610;2024-02-23T06:26:12;12.13;;;5.47;;
78183;SDS011;67442;44.570;18.610;2024-02-23T06:28:39;8.07;;;4.28;;
78183;SDS011;67442;44.570;18.610;2024-02-23T06:31:09;15.73;;;6.25;;
78183;SDS011;67442;44.570;18.610;2024-02-23T06:33:37;8.80;;;5.25;;
78183;SDS011;67442;44.570;18.610;2024-02-23T06:36:06;8.18;;;4.72;;
78183;SDS011;67442;44.570;18.610;2024-02-23T06:38:34;11.20;;;6.38;;
78183;SDS011;67442;44.570;18.610;2024-02-23T06:41:01;8.88;;;4.60;;
78183;SDS011;67442;44.570;18.610;2024-02-23T06:43:28;12.20;;;4.65;;
78183;SDS011;67442;44.570;18.610;2024-02-23T06:45:56;11.68;;;5.10;;
78183;SDS011;67442;44.570;18.610;2024-02-23T06:48:23;15.10;;;5.15;;
78183;SDS011;67442;44.570;18.610;2024-02-23T06:50:51;7.70;;;4.72;;
78183;SDS011;67442;44.570;18.610;2024-02-23T06:53:19;11.82;;;5.22;;
78183;SDS011;67442;44.570;18.610;2024-02-23T06:55:46;12.35;;;6.07;;
78183;SDS011;67442;44.570;18.610;2024-02-23T06:58:13;8.98;;;4.90;;
78183;SDS011;67442;44.570;18.610;2024-02-23T07:00:42;12.00;;;5.00;;
78183;SDS011;67442;44.570;18.610;2024-02-23T07:03:09;10.18;;;4.60;;
78183;SDS011;67442;44.570;18.610;2024-02-23T07:05:36;8.35;;;3.95;;
78183;SDS011;67442;44.570;18.610;2024-02-23T07:08:03;20.98;;;4.80;;
78183;SDS011;67442;44.570;18.610;2024-02-23T07:10:32;7.60;;;4.43;;
78183;SDS011;67442;44.570;18.610;2024-02-23T07:12:59;9.50;;;4.10;;
78183;SDS011;67442;44.570;18.610;2024-02-23T07:15:26;7.70;;;4.47;;
78183;SDS011;67442;44.570;18.610;2024-02-23T07:17:53;10.18;;;4.60;;
78183;SDS011;67442;44.570;18.610;2024-02-23T07:20:20;7.68;;;4.18;;
78183;SDS011;67442;44.570;18.610;2024-02-23T07:22:47;12.75;;;4.43;;
78183;SDS011;67442;44.570;18.610;2024-02-23T07:25:17;9.38;;;5.35;;
78183;SDS011;67442;44.570;18.610;2024-02-23T07:27:48;10.30;;;4.80;;
78183;SDS011;67442;44.570;18.610;2024-02-23T07:30:15;6.93;;;4.10;;
78183;SDS011;67442;44.570;18.610;2024-02-23T07:32:43;7.15;;;4.25;;
78183;SDS011;67442;44.570;18.610;2024-02-23T07:35:10;16.77;;;9.45;;
78183;SDS011;67442;44.570;18.610;2024-02-23T07:37:37;11.10;;;5.15;;
78183;SDS011;67442;44.570;18.610;2024-02-23T07:40:05;10.80;;;5.55;;
78183;SDS011;67442;44.570;18.610;2024-02-23T07:42:34;10.20;;;5.10;;
78183;SDS011;67442;44.570;18.610;2024-02-23T07:45:04;11.20;;;4.75;;
78183;SDS011;67442;44.570;18.610;2024-02-23T07:47:32;15.00;;;5.50;;
78183;SDS011;67442;44.570;18.610;2024-02-23T07:50:00;14.93;;;7.57;;
78183;SDS011;67442;44.570;18.610;2024-02-23T07:52:27;12.52;;;4.47;;
78183;SDS011;67442;44.570;18.610;2024-02-23T07:54:55;9.30;;;5.10;;
78183;SDS011;67442;44.570;18.610;2024-02-23T07:57:22;11.95;;;5.97;;
78183;SDS011;67442;44.570;18.610;2024-02-23T07:59:49;10.90;;;5.78;;
78183;SDS011;67442;44.570;18.610;2024-02-23T08:02:16;9.32;;;4.78;;
78183;SDS011;67442;44.570;18.610;2024-02-23T08:04:43;66.82;;;27.08;;
78183;SDS011;67442;44.570;18.610;2024-02-23T08:07:13;69.45;;;44.65;;
78183;SDS011;67442;44.570;18.610;2024-02-23T08:09:40;10.57;;;5.75;;
78183;SDS011;67442;44.570;18.610;2024-02-23T08:12:08;13.80;;;6.70;;
78183;SDS011;67442;44.570;18.610;2024-02-23T08:14:37;22.38;;;12.27;;
78183;SDS011;67442;44.570;18.610;2024-02-23T08:17:04;19.02;;;9.48;;
78183;SDS011;67442;44.570;18.610;2024-02-23T08:19:31;16.77;;;8.15;;
78183;SDS011;67442;44.570;18.610;2024-02-23T08:21:59;38.15;;;19.48;;
78183;SDS011;67442;44.570;18.610;2024-02-23T08:24:26;30.63;;;15.80;;
78183;SDS011;67442;44.570;18.610;2024-02-23T08:26:53;17.25;;;7.47;;
78183;SDS011;67442;44.570;18.610;2024-02-23T08:29:21;18.25;;;9.00;;
78183;SDS011;67442;44.570;18.610;2024-02-23T08:31:48;9.38;;;4.93;;
78183;SDS011;67442;44.570;18.610;2024-02-23T08:34:16;18.65;;;9.90;;
78183;SDS011;67442;44.570;18.610;2024-02-23T08:36:43;16.63;;;8.85;;
78183;SDS011;67442;44.570;18.610;2024-02-23T08:39:10;11.60;;;4.90;;
78183;SDS011;67442;44.570;18.610;2024-02-23T08:41:38;16.27;;;8.00;;
78183;SDS011;67442;44.570;18.610;2024-02-23T08:44:05;37.00;;;12.60;;
78183;SDS011;67442;44.570;18.610;2024-02-23T08:46:33;9.10;;;5.15;;
78183;SDS011;67442;44.570;18.610;2024-02-23T08:49:01;12.52;;;6.50;;
78183;SDS011;67442;44.570;18.610;2024-02-23T08:51:28;9.35;;;5.28;;
78183;SDS011;67442;44.570;18.610;2024-02-23T08:53:55;9.25;;;4.72;;
78183;SDS011;67442;44.570;18.610;2024-02-23T08:56:28;7.90;;;4.30;;
78183;SDS011;67442;44.570;18.610;2024-02-23T08:58:56;13.73;;;6.18;;
78183;SDS011;67442;44.570;18.610;2024-02-23T09:01:23;14.35;;;6.43;;
78183;SDS011;67442;44.570;18.610;2024-02-23T09:03:51;16.23;;;5.70;;
78183;SDS011;67442;44.570;18.610;2024-02-23T09:06:18;9.00;;;5.43;;
78183;SDS011;67442;44.570;18.610;2024-02-23T09:08:46;12.88;;;5.30;;
78183;SDS011;67442;44.570;18.610;2024-02-23T09:11:13;8.75;;;4.95;;
78183;SDS011;67442;44.570;18.610;2024-02-23T09:13:41;11.27;;;6.07;;
78183;SDS011;67442;44.570;18.610;2024-02-23T09:16:08;9.88;;;5.10;;
78183;SDS011;67442;44.570;18.610;2024-02-23T09:18:35;16.05;;;7.20;;
78183;SDS011;67442;44.570;18.610;2024-02-23T09:21:03;13.85;;;5.95;;
78183;SDS011;67442;44.570;18.610;2024-02-23T09:23:31;10.02;;;5.13;;
78183;SDS011;67442;44.570;18.610;2024-02-23T09:25:59;11.82;;;5.90;;
78183;SDS011;67442;44.570;18.610;2024-02-23T09:28:26;13.80;;;5.43;;
78183;SDS011;67442;44.570;18.610;2024-02-23T09:30:53;16.38;;;7.07;;
78183;SDS011;67442;44.570;18.610;2024-02-23T09:33:20;16.33;;;6.38;;
78183;SDS011;67442;44.570;18.610;2024-02-23T09:35:48;10.02;;;4.85;;
78183;SDS011;67442;44.570;18.610;2024-02-23T09:38:15;12.70;;;5.57;;
78183;SDS011;67442;44.570;18.610;2024-02-23T09:40:42;10.65;;;5.28;;
78183;SDS011;67442;44.570;18.610;2024-02-23T09:43:10;8.93;;;4.50;;
78183;SDS011;67442;44.570;18.610;2024-02-23T09:45:37;10.75;;;4.50;;
78183;SDS011;67442;44.570;18.610;2024-02-23T09:48:05;12.27;;;5.32;;
78183;SDS011;67442;44.570;18.610;2024-02-23T09:50:34;9.40;;;4.22;;
78183;SDS011;67442;44.570;18.610;2024-02-23T09:53:02;12.95;;;4.80;;
78183;SDS011;67442;44.570;18.610;2024-02-23T09:55:30;21.40;;;9.60;;
78183;SDS011;67442;44.570;18.610;2024-02-23T09:57:58;15.77;;;8.10;;
78183;SDS011;67442;44.570;18.610;2024-02-23T10:00:25;18.73;;;9.40;;
78183;SDS011;67442;44.570;18.610;2024-02-23T10:02:53;13.77;;;8.45;;
78183;SDS011;67442;44.570;18.610;2024-02-23T10:05:22;11.88;;;5.57;;
78183;SDS011;67442;44.570;18.610;2024-02-23T10:07:49;17.63;;;9.48;;
78183;SDS011;67442;44.570;18.610;2024-02-23T10:10:35;14.85;;;9.35;;
78183;SDS011;67442;44.570;18.610;2024-02-23T10:13:02;11.93;;;5.53;;
78183;SDS011;67442;44.570;18.610;2024-02-23T10:15:32;29.58;;;14.65;;
78183;SDS011;67442;44.570;18.610;2024-02-23T10:17:59;11.77;;;6.30;;
78183;SDS011;67442;44.570;18.610;2024-02-23T10:20:26;33.10;;;11.90;;
78183;SDS011;67442;44.570;18.610;2024-02-23T10:22:54;9.55;;;6.43;;
78183;SDS011;67442;44.570;18.610;2024-02-23T10:25:21;9.48;;;6.45;;
78183;SDS011;67442;44.570;18.610;2024-02-23T10:27:49;14.50;;;7.13;;
78183;SDS011;67442;44.570;18.610;2024-02-23T10:30:16;14.52;;;8.00;;
78183;SDS011;67442;44.570;18.610;2024-02-23T10:32:43;15.07;;;7.53;;
78183;SDS011;67442;44.570;18.610;2024-02-23T10:35:13;19.05;;;10.02;;
78183;SDS011;67442;44.570;18.610;2024-02-23T10:37:42;12.82;;;6.68;;
78183;SDS011;67442;44.570;18.610;2024-02-23T10:40:11;12.77;;;7.05;;
78183;SDS011;67442;44.570;18.610;2024-02-23T10:42:43;9.73;;;6.25;;
78183;SDS011;67442;44.570;18.610;2024-02-23T10:45:16;18.00;;;8.77;;
78183;SDS011;67442;44.570;18.610;2024-02-23T10:47:45;39.45;;;18.20;;
78183;SDS011;67442;44.570;18.610;2024-02-23T10:50:12;36.80;;;17.85;;
78183;SDS011;67442;44.570;18.610;2024-02-23T10:52:44;27.45;;;14.15;;
78183;SDS011;67442;44.570;18.610;2024-02-23T10:55:11;18.25;;;10.00;;
78183;SDS011;67442;44.570;18.610;2024-02-23T10:57:38;40.53;;;16.88;;
78183;SDS011;67442;44.570;18.610;2024-02-23T11:00:08;63.45;;;25.90;;
78183;SDS011;67442;44.570;18.610;2024-02-23T11:02:41;47.50;;;20.92;;
78183;SDS011;67442;44.570;18.610;2024-02-23T11:05:10;32.40;;;16.20;;
78183;SDS011;67442;44.570;18.610;2024-02-23T11:07:38;29.85;;;13.38;;
78183;SDS011;67442;44.570;18.610;2024-02-23T11:10:06;21.67;;;10.80;;
78183;SDS011;67442;44.570;18.610;2024-02-23T11:12:34;24.23;;;9.80;;
78183;SDS011;67442;44.570;18.610;2024-02-23T11:15:02;18.10;;;9.45;;
78183;SDS011;67442;44.570;18.610;2024-02-23T11:17:31;16.48;;;8.38;;
78183;SDS011;67442;44.570;18.610;2024-02-23T11:19:58;56.35;;;26.08;;
78183;SDS011;67442;44.570;18.610;2024-02-23T11:22:26;39.35;;;21.10;;
78183;SDS011;67442;44.570;18.610;2024-02-23T11:25:00;36.50;;;18.60;;
78183;SDS011;67442;44.570;18.610;2024-02-23T11:27:30;40.25;;;19.83;;
78183;SDS011;67442;44.570;18.610;2024-02-23T11:30:04;58.78;;;25.52;;
78183;SDS011;67442;44.570;18.610;2024-02-23T11:32:49;76.43;;;31.60;;
78183;SDS011;67442;44.570;18.610;2024-02-23T11:35:21;80.18;;;31.83;;
78183;SDS011;67442;44.570;18.610;2024-02-23T11:37:56;64.93;;;27.40;;
78183;SDS011;67442;44.570;18.610;2024-02-23T11:40:30;60.13;;;24.55;;
78183;SDS011;67442;44.570;18.610;2024-02-23T11:42:58;56.65;;;23.33;;
78183;SDS011;67442;44.570;18.610;2024-02-23T11:45:27;62.80;;;24.88;;
78183;SDS011;67442;44.570;18.610;2024-02-23T11:47:56;67.28;;;25.92;;
78183;SDS011;67442;44.570;18.610;2024-02-23T11:50:24;55.60;;;22.80;;
78183;SDS011;67442;44.570;18.610;2024-02-23T11:52:52;94.80;;;36.08;;
78183;SDS011;67442;44.570;18.610;2024-02-23T11:55:19;68.75;;;28.83;;
78183;SDS011;67442;44.570;18.610;2024-02-23T11:57:48;122.20;;;47.60;;
78183;SDS011;67442;44.570;18.610;2024-02-23T12:00:15;110.35;;;43.28;;
78183;SDS011;67442;44.570;18.610;2024-02-23T12:02:43;95.22;;;38.88;;
78183;SDS011;67442;44.570;18.610;2024-02-23T12:05:30;148.93;;;63.83;;
78183;SDS011;67442;44.570;18.610;2024-02-23T12:07:57;85.47;;;34.95;;
78183;SDS011;67442;44.570;18.610;2024-02-23T12:10:25;81.35;;;32.38;;
78183;SDS011;67442;44.570;18.610;2024-02-23T12:12:53;91.75;;;40.65;;
78183;SDS011;67442;44.570;18.610;2024-02-23T12:15:21;64.28;;;28.13;;
78183;SDS011;67442;44.570;18.610;2024-02-23T12:17:49;47.13;;;21.08;;
78183;SDS011;67442;44.570;18.610;2024-02-23T12:20:16;64.07;;;26.85;;
78183;SDS011;67442;44.570;18.610;2024-02-23T12:22:43;41.85;;;20.05;;
78183;SDS011;67442;44.570;18.610;2024-02-23T12:25:12;58.85;;;25.58;;
78183;SDS011;67442;44.570;18.610;2024-02-23T12:27:38;66.95;;;29.00;;
78183;SDS011;67442;44.570;18.610;2024-02-23T12:30:05;69.97;;;28.92;;
78183;SDS011;67442;44.570;18.610;2024-02-23T12:32:34;62.00;;;25.23;;
78183;SDS011;67442;44.570;18.610;2024-02-23T12:35:01;36.00;;;15.63;;
78183;SDS011;67442;44.570;18.610;2024-02-23T12:37:29;65.07;;;30.38;;
78183;SDS011;67442;44.570;18.610;2024-02-23T12:40:00;30.17;;;13.98;;
78183;SDS011;67442;44.570;18.610;2024-02-23T12:42:28;19.67;;;10.57;;
78183;SDS011;67442;44.570;18.610;2024-02-23T12:44:55;22.55;;;11.65;;
78183;SDS011;67442;44.570;18.610;2024-02-23T12:47:23;29.75;;;13.38;;
78183;SDS011;67442;44.570;18.610;2024-02-23T12:49:50;31.05;;;13.68;;
78183;SDS011;67442;44.570;18.610;2024-02-23T12:52:18;21.83;;;10.80;;
78183;SDS011;67442;44.570;18.610;2024-02-23T12:54:45;35.25;;;15.75;;
78183;SDS011;67442;44.570;18.610;2024-02-23T12:57:13;47.90;;;19.58;;
78183;SDS011;67442;44.570;18.610;2024-02-23T12:59:40;37.50;;;17.92;;
78183;SDS011;67442;44.570;18.610;2024-02-23T13:02:07;31.10;;;12.98;;
78183;SDS011;67442;44.570;18.610;2024-02-23T13:04:36;30.88;;;14.80;;
78183;SDS011;67442;44.570;18.610;2024-02-23T13:07:04;51.88;;;21.25;;
78183;SDS011;67442;44.570;18.610;2024-02-23T13:09:31;79.30;;;29.27;;
78183;SDS011;67442;44.570;18.610;2024-02-23T13:11:58;39.22;;;16.05;;
78183;SDS011;67442;44.570;18.610;2024-02-23T13:14:25;33.60;;;14.93;;
78183;SDS011;67442;44.570;18.610;2024-02-23T13:16:53;26.77;;;10.90;;
78183;SDS011;67442;44.570;18.610;2024-02-23T13:19:20;35.80;;;17.25;;
78183;SDS011;67442;44.570;18.610;2024-02-23T13:21:47;25.48;;;11.20;;
78183;SDS011;67442;44.570;18.610;2024-02-23T13:24:14;41.70;;;17.13;;
78183;SDS011;67442;44.570;18.610;2024-02-23T13:26:42;21.05;;;9.02;;
78183;SDS011;67442;44.570;18.610;2024-02-23T13:29:10;16.35;;;7.60;;
78183;SDS011;67442;44.570;18.610;2024-02-23T13:31:37;15.93;;;7.25;;
78183;SDS011;67442;44.570;18.610;2024-02-23T13:34:05;20.30;;;9.23;;
78183;SDS011;67442;44.570;18.610;2024-02-23T13:36:32;32.58;;;14.07;;
78183;SDS011;67442;44.570;18.610;2024-02-23T13:39:00;18.02;;;8.60;;
78183;SDS011;67442;44.570;18.610;2024-02-23T13:41:27;19.23;;;9.38;;
78183;SDS011;67442;44.570;18.610;2024-02-23T13:43:54;24.55;;;11.73;;
78183;SDS011;67442;44.570;18.610;2024-02-23T13:46:22;29.50;;;13.00;;
78183;SDS011;67442;44.570;18.610;2024-02-23T13:49:00;31.00;;;13.95;;
78183;SDS011;67442;44.570;18.610;2024-02-23T13:51:28;61.00;;;25.08;;
78183;SDS011;67442;44.570;18.610;2024-02-23T13:53:55;22.48;;;9.90;;
78183;SDS011;67442;44.570;18.610;2024-02-23T13:56:22;38.75;;;16.73;;
78183;SDS011;67442;44.570;18.610;2024-02-23T13:58:50;19.90;;;8.68;;
78183;SDS011;67442;44.570;18.610;2024-02-23T14:01:17;17.92;;;9.88;;
78183;SDS011;67442;44.570;18.610;2024-02-23T14:03:45;21.38;;;11.25;;
78183;SDS011;67442;44.570;18.610;2024-02-23T14:06:12;44.13;;;18.48;;
78183;SDS011;67442;44.570;18.610;2024-02-23T14:08:40;55.10;;;25.30;;
78183;SDS011;67442;44.570;18.610;2024-02-23T14:11:08;58.42;;;27.58;;
78183;SDS011;67442;44.570;18.610;2024-02-23T14:13:39;56.25;;;27.05;;
78183;SDS011;67442;44.570;18.610;2024-02-23T14:16:06;58.38;;;26.45;;
78183;SDS011;67442;44.570;18.610;2024-02-23T14:18:34;40.70;;;20.90;;
78183;SDS011;67442;44.570;18.610;2024-02-23T14:21:04;72.78;;;32.30;;